Weather at Mirny Airport

Public forecast

Using degrees Celsius for public forecast. Weather courtesy of forecast.io.

Current aviation weather report (METAR) for Mirny Airport

Retrieved 2021/06/19 20:30 UTC (0 seconds ago):

UERR 192030Z VRB01MPS CAVOK 15/13 Q1006 R25/CLRD60 NOSIG RMK QFE724/0965

Aviation forecast (TAF) for Mirny Airport

Retrieved 2021/06/19 21:21 UTC (0 seconds ago):

TAF UERR 192000Z 1921/2021 VRB01MPS 9999 SCT023CB TX29/2007Z TN15/2017Z TEMPO 2003/2012 VRB14MPS 4000 -TSRA BKN017CB